Terminal Aerodrome Forecast
Issued by NWS Greer, SC

Home | Current Version | Previous Version | Text Only | Print | Product List | Glossary On
Versions: 1 2 3 4 5 6 7 8 9 10 11 12 13 14 15 16 17 18 19 20 21 22 23 24 25 26 27 28
000
FTUS42 KGSP 202300
TAFAVL
TAF
KAVL 202332Z 2100/2124 19003KT P6SM BKN080
     FM210600 00000KT P6SM SCT250
     FM210800 34003KT 5SM BR SCT250
     FM211000 34003KT 1/2SM FG SCT002
     FM211300 34006KT P6SM SCT250
     FM211800 35011G18KT P6SM SCT045=

USA.gov is the U.S. government's official web portal to all federal, state and local government web resources and services.